UAE73J EGCC-OMDB
Flight info
| Callsign | UAE73J |
|---|---|
| Flight time | N/A |
| Altitude | 35000 |
| Route | DESIG L603 DOLAS DCT NAVPI DCT NOLRU DCT DODEN DCT NEGIX DCT DINKU M867 XERUM DCT BAVAX DCT RADIZ DCT DARZA DCT PINDO DCT PAXIS DCT OBRAN L321 REXUM M872 LUBOS/N0487F370 M872 BDB Y214 RAPMA DCT KUVSO DCT KATIT DCT PEKEM M628 RIGIL G783 ELUDA/N0500F350 G783 ASPED Q308 KIPOK/N0504F340 Q568 IMPED |
| Aircraft | B77W/H-SDE1E2E3FGHIJ2J3J4J5M1RWXY/LB1D1 |
Departure
| Time | N/A |
|---|---|
| Airport | Manchester Airport (EGCC) |
Arrival
| Time | 2026-05-03 22:32 |
|---|---|
| Airport | Dubai International Airport (OMDB) |
| Time | Latitude | Longitude | Altitude | Speed | Heading |
|---|---|---|---|---|---|
| 2026-05-03 20:15 | 25.18676 | 38.47126 | 36919 ft | 529 kts | 127° |
| 2026-05-03 20:15 | 25.15055 | 38.54215 | 36924 ft | 530 kts | 127° |
| 2026-05-03 20:16 | 25.11451 | 38.61262 | 36931 ft | 531 kts | 127° |
| 2026-05-03 20:16 | 25.07819 | 38.68360 | 36934 ft | 531 kts | 127° |
| 2026-05-03 20:17 | 25.04170 | 38.75480 | 36927 ft | 532 kts | 127° |
| 2026-05-03 20:17 | 25.00521 | 38.82592 | 36944 ft | 532 kts | 127° |
| 2026-05-03 20:18 | 24.96893 | 38.89649 | 36953 ft | 532 kts | 126° |
| 2026-05-03 20:18 | 24.93224 | 38.96750 | 36948 ft | 532 kts | 127° |
| 2026-05-03 20:19 | 24.89550 | 39.03816 | 36951 ft | 531 kts | 127° |
| 2026-05-03 20:19 | 24.85897 | 39.10840 | 36951 ft | 530 kts | 127° |
| 2026-05-03 20:20 | 24.82230 | 39.17888 | 36970 ft | 529 kts | 127° |
| 2026-05-03 20:20 | 24.78569 | 39.24913 | 36952 ft | 528 kts | 127° |
| 2026-05-03 20:21 | 24.74935 | 39.31879 | 36965 ft | 527 kts | 127° |
| 2026-05-03 20:21 | 24.71274 | 39.38888 | 36975 ft | 527 kts | 127° |
| 2026-05-03 20:22 | 24.67621 | 39.45875 | 36999 ft | 526 kts | 127° |
| 2026-05-03 20:22 | 24.63989 | 39.52807 | 37016 ft | 525 kts | 127° |
| 2026-05-03 20:23 | 24.60324 | 39.59795 | 37014 ft | 527 kts | 127° |
| 2026-05-03 20:23 | 24.56775 | 39.66799 | 37013 ft | 532 kts | 121° |
| 2026-05-03 20:24 | 24.54376 | 39.74584 | 37021 ft | 542 kts | 108° |
| 2026-05-03 20:24 | 24.53348 | 39.82852 | 37020 ft | 547 kts | 99° |
| 2026-05-03 20:25 | 24.52659 | 39.91171 | 37008 ft | 546 kts | 99° |
| 2026-05-03 20:25 | 24.51930 | 39.99420 | 37007 ft | 545 kts | 99° |
| 2026-05-03 20:26 | 24.51133 | 40.07697 | 36990 ft | 544 kts | 100° |
| 2026-05-03 20:26 | 24.50318 | 40.15952 | 36993 ft | 542 kts | 100° |
| 2026-05-03 20:27 | 24.49506 | 40.24185 | 36992 ft | 541 kts | 100° |
| 2026-05-03 20:27 | 24.48700 | 40.32356 | 36995 ft | 541 kts | 100° |
| 2026-05-03 20:28 | 24.47886 | 40.40569 | 36992 ft | 540 kts | 100° |
| 2026-05-03 20:28 | 24.47068 | 40.48772 | 36996 ft | 540 kts | 100° |
| 2026-05-03 20:29 | 24.46248 | 40.56956 | 36998 ft | 539 kts | 100° |
| 2026-05-03 20:29 | 24.45428 | 40.65095 | 36999 ft | 539 kts | 99° |
| 2026-05-03 20:30 | 24.44606 | 40.73290 | 37000 ft | 539 kts | 99° |
| 2026-05-03 20:30 | 24.43780 | 40.81484 | 36999 ft | 539 kts | 99° |
| 2026-05-03 20:31 | 24.42952 | 40.89659 | 37004 ft | 540 kts | 99° |
| 2026-05-03 20:31 | 24.42116 | 40.97860 | 37009 ft | 540 kts | 100° |
| 2026-05-03 20:32 | 24.41279 | 41.06031 | 37010 ft | 541 kts | 100° |
| 2026-05-03 20:32 | 24.40424 | 41.14237 | 37009 ft | 541 kts | 100° |
| 2026-05-03 20:33 | 24.39555 | 41.22451 | 37011 ft | 541 kts | 100° |
| 2026-05-03 20:33 | 24.38687 | 41.30622 | 37013 ft | 542 kts | 100° |
| 2026-05-03 20:34 | 24.37812 | 41.38840 | 37012 ft | 542 kts | 100° |
| 2026-05-03 20:34 | 24.36933 | 41.47055 | 37014 ft | 541 kts | 100° |
| 2026-05-03 20:35 | 24.36056 | 41.55216 | 37011 ft | 541 kts | 100° |
| 2026-05-03 20:35 | 24.35168 | 41.63429 | 37008 ft | 540 kts | 100° |
| 2026-05-03 20:36 | 24.34285 | 41.71558 | 37010 ft | 539 kts | 100° |
| 2026-05-03 20:36 | 24.33391 | 41.79712 | 37008 ft | 537 kts | 101° |
| 2026-05-03 20:37 | 24.31845 | 41.87677 | 37006 ft | 531 kts | 110° |
| 2026-05-03 20:37 | 24.29747 | 41.95431 | 37003 ft | 530 kts | 111° |
| 2026-05-03 20:38 | 24.27655 | 42.03119 | 37006 ft | 529 kts | 110° |
| 2026-05-03 20:38 | 24.25586 | 42.10888 | 37007 ft | 529 kts | 110° |
| 2026-05-03 20:39 | 24.23538 | 42.18642 | 37007 ft | 529 kts | 110° |
| 2026-05-03 20:39 | 24.21501 | 42.26343 | 37013 ft | 529 kts | 110° |
| 2026-05-03 20:40 | 24.19440 | 42.34100 | 37009 ft | 529 kts | 110° |
| 2026-05-03 20:40 | 24.17376 | 42.41848 | 37017 ft | 529 kts | 110° |
| 2026-05-03 20:41 | 24.15309 | 42.49587 | 37018 ft | 529 kts | 110° |
| 2026-05-03 20:41 | 24.13253 | 42.57272 | 37023 ft | 528 kts | 110° |
| 2026-05-03 20:42 | 24.11181 | 42.65001 | 37016 ft | 528 kts | 110° |
| 2026-05-03 20:42 | 24.09108 | 42.72715 | 37030 ft | 528 kts | 110° |
| 2026-05-03 20:43 | 24.07044 | 42.80382 | 37031 ft | 527 kts | 110° |
| 2026-05-03 20:43 | 24.04967 | 42.88081 | 37037 ft | 527 kts | 110° |
| 2026-05-03 20:44 | 24.02899 | 42.95732 | 37037 ft | 526 kts | 110° |
| 2026-05-03 20:44 | 24.00820 | 43.03414 | 37048 ft | 526 kts | 110° |
| 2026-05-03 20:45 | 23.98741 | 43.11087 | 37052 ft | 525 kts | 110° |
| 2026-05-03 20:45 | 23.96661 | 43.18744 | 37053 ft | 525 kts | 110° |
| 2026-05-03 20:46 | 23.94586 | 43.26366 | 37049 ft | 524 kts | 110° |
| 2026-05-03 20:46 | 23.92502 | 43.34009 | 37057 ft | 524 kts | 110° |
| 2026-05-03 20:47 | 23.90414 | 43.41647 | 37053 ft | 524 kts | 110° |
| 2026-05-03 20:47 | 23.88336 | 43.49231 | 37044 ft | 524 kts | 110° |
| 2026-05-03 20:48 | 23.86244 | 43.56853 | 37041 ft | 523 kts | 110° |
| 2026-05-03 20:48 | 23.84145 | 43.64484 | 37038 ft | 523 kts | 110° |
| 2026-05-03 20:49 | 23.82057 | 43.72059 | 37028 ft | 522 kts | 110° |
| 2026-05-03 20:49 | 23.79969 | 43.79621 | 37030 ft | 522 kts | 110° |
| 2026-05-03 20:50 | 23.78224 | 43.85980 | 37022 ft | 522 kts | 109° |
| 2026-05-03 20:50 | 23.76809 | 43.95120 | 37020 ft | 527 kts | 97° |
| 2026-05-03 20:51 | 23.76363 | 44.01762 | 37007 ft | 527 kts | 97° |
| 2026-05-03 20:51 | 23.75745 | 44.11049 | 37004 ft | 527 kts | 97° |
| 2026-05-03 20:52 | 23.75262 | 44.17679 | 37007 ft | 526 kts | 97° |
| 2026-05-03 20:52 | 23.74656 | 44.25652 | 37021 ft | 526 kts | 97° |
| 2026-05-03 20:53 | 23.74044 | 44.33617 | 37010 ft | 526 kts | 97° |
| 2026-05-03 20:53 | 23.73433 | 44.41566 | 37013 ft | 526 kts | 97° |
| 2026-05-03 20:54 | 23.72818 | 44.49541 | 37005 ft | 526 kts | 98° |
| 2026-05-03 20:54 | 23.71892 | 44.61442 | 37017 ft | 526 kts | 98° |
| 2026-05-03 20:55 | 23.71266 | 44.69414 | 36998 ft | 525 kts | 98° |
| 2026-05-03 20:55 | 23.70642 | 44.77314 | 37012 ft | 525 kts | 98° |
| 2026-05-03 20:56 | 23.70011 | 44.85261 | 37001 ft | 524 kts | 98° |
| 2026-05-03 20:56 | 23.69374 | 44.93206 | 37004 ft | 524 kts | 98° |
| 2026-05-03 20:57 | 23.68736 | 45.01087 | 37004 ft | 524 kts | 98° |
| 2026-05-03 20:57 | 23.68090 | 45.09016 | 37006 ft | 524 kts | 98° |
| 2026-05-03 20:58 | 23.67441 | 45.16959 | 37003 ft | 524 kts | 98° |
| 2026-05-03 20:58 | 23.66792 | 45.24837 | 36998 ft | 524 kts | 98° |
| 2026-05-03 20:59 | 23.66138 | 45.32759 | 36990 ft | 523 kts | 98° |
| 2026-05-03 20:59 | 23.65481 | 45.40678 | 36989 ft | 523 kts | 98° |
| 2026-05-03 21:00 | 23.64931 | 45.47260 | 36977 ft | 523 kts | 98° |
| 2026-05-03 21:00 | 23.64159 | 45.56441 | 36986 ft | 522 kts | 98° |
| 2026-05-03 21:01 | 23.63495 | 45.64304 | 36968 ft | 522 kts | 98° |
| 2026-05-03 21:01 | 23.62824 | 45.72199 | 36974 ft | 522 kts | 98° |
| 2026-05-03 21:02 | 23.62151 | 45.80084 | 36969 ft | 522 kts | 98° |
| 2026-05-03 21:02 | 23.61475 | 45.87971 | 36957 ft | 522 kts | 98° |
| 2026-05-03 21:03 | 23.60798 | 45.95823 | 36959 ft | 522 kts | 98° |
| 2026-05-03 21:03 | 23.60114 | 46.03705 | 36970 ft | 522 kts | 98° |
| 2026-05-03 21:04 | 23.59425 | 46.11597 | 36969 ft | 522 kts | 98° |
| 2026-05-03 21:04 | 23.58734 | 46.19478 | 36977 ft | 522 kts | 98° |
| 2026-05-03 21:05 | 23.58040 | 46.27321 | 36979 ft | 522 kts | 98° |
| 2026-05-03 21:05 | 23.57341 | 46.35198 | 36971 ft | 521 kts | 98° |
| 2026-05-03 21:06 | 23.56641 | 46.43034 | 36970 ft | 520 kts | 98° |
| 2026-05-03 21:06 | 23.55936 | 46.50893 | 36974 ft | 519 kts | 98° |
| 2026-05-03 21:07 | 23.55221 | 46.58738 | 36968 ft | 519 kts | 98° |
| 2026-05-03 21:07 | 23.54498 | 46.66572 | 36968 ft | 519 kts | 98° |
| 2026-05-03 21:08 | 23.53775 | 46.74365 | 36964 ft | 519 kts | 98° |
| 2026-05-03 21:08 | 23.53044 | 46.82205 | 36955 ft | 520 kts | 98° |
| 2026-05-03 21:09 | 23.52314 | 46.90009 | 36949 ft | 520 kts | 98° |
| 2026-05-03 21:09 | 23.51576 | 46.97853 | 36950 ft | 520 kts | 98° |
| 2026-05-03 21:10 | 23.50832 | 47.05714 | 36936 ft | 520 kts | 98° |
| 2026-05-03 21:10 | 23.50090 | 47.13513 | 36936 ft | 520 kts | 98° |
| 2026-05-03 21:11 | 23.49337 | 47.21379 | 36926 ft | 520 kts | 98° |
| 2026-05-03 21:11 | 23.48582 | 47.29229 | 36927 ft | 520 kts | 98° |
| 2026-05-03 21:12 | 23.47824 | 47.37072 | 36922 ft | 520 kts | 98° |
| 2026-05-03 21:12 | 23.47067 | 47.44862 | 36915 ft | 520 kts | 98° |
| 2026-05-03 21:13 | 23.46301 | 47.52712 | 36914 ft | 520 kts | 98° |
| 2026-05-03 21:13 | 23.45538 | 47.60545 | 36906 ft | 520 kts | 98° |
| 2026-05-03 21:14 | 23.44777 | 47.68343 | 36895 ft | 520 kts | 98° |
| 2026-05-03 21:14 | 23.44009 | 47.76178 | 36896 ft | 519 kts | 98° |
| 2026-05-03 21:15 | 23.43236 | 47.84014 | 36894 ft | 519 kts | 98° |
| 2026-05-03 21:15 | 23.42465 | 47.91783 | 36882 ft | 519 kts | 98° |
| 2026-05-03 21:16 | 23.41685 | 47.99608 | 36880 ft | 519 kts | 98° |
| 2026-05-03 21:16 | 23.40901 | 48.07433 | 36872 ft | 519 kts | 98° |
| 2026-05-03 21:17 | 23.40247 | 48.13935 | 36872 ft | 519 kts | 98° |
| 2026-05-03 21:17 | 23.39327 | 48.23025 | 36868 ft | 519 kts | 98° |
| 2026-05-03 21:18 | 23.38532 | 48.30852 | 36867 ft | 519 kts | 98° |
| 2026-05-03 21:18 | 23.37944 | 48.38652 | 36862 ft | 520 kts | 94° |
| 2026-05-03 21:19 | 23.37656 | 48.46521 | 36859 ft | 520 kts | 93° |
| 2026-05-03 21:19 | 23.37385 | 48.54406 | 36857 ft | 520 kts | 94° |
| 2026-05-03 21:20 | 23.37079 | 48.62225 | 36858 ft | 520 kts | 94° |
| 2026-05-03 21:20 | 23.36752 | 48.70095 | 36854 ft | 520 kts | 94° |
| 2026-05-03 21:21 | 23.36422 | 48.77957 | 36854 ft | 520 kts | 94° |
| 2026-05-03 21:21 | 23.36091 | 48.85787 | 36851 ft | 519 kts | 94° |
| 2026-05-03 21:22 | 23.35756 | 48.93647 | 36850 ft | 519 kts | 94° |
| 2026-05-03 21:22 | 23.35417 | 49.01518 | 36840 ft | 519 kts | 94° |
| 2026-05-03 21:23 | 23.34883 | 49.09318 | 36841 ft | 518 kts | 99° |
| 2026-05-03 21:23 | 23.33771 | 49.17078 | 36846 ft | 518 kts | 101° |
| 2026-05-03 21:24 | 23.32603 | 49.24778 | 36837 ft | 518 kts | 101° |
| 2026-05-03 21:24 | 23.31454 | 49.32539 | 36836 ft | 519 kts | 101° |
| 2026-05-03 21:25 | 23.30326 | 49.40308 | 36839 ft | 519 kts | 100° |
| 2026-05-03 21:25 | 23.29208 | 49.48026 | 36837 ft | 519 kts | 100° |
| 2026-05-03 21:26 | 23.28079 | 49.55790 | 36835 ft | 519 kts | 100° |
| 2026-05-03 21:26 | 23.26942 | 49.63563 | 36837 ft | 519 kts | 101° |
| 2026-05-03 21:27 | 23.25808 | 49.71288 | 36836 ft | 520 kts | 101° |
| 2026-05-03 21:27 | 23.24664 | 49.79054 | 36837 ft | 520 kts | 101° |
| 2026-05-03 21:28 | 23.23514 | 49.86828 | 36834 ft | 520 kts | 101° |
| 2026-05-03 21:28 | 23.22368 | 49.94554 | 36830 ft | 520 kts | 101° |
| 2026-05-03 21:29 | 23.21211 | 50.02323 | 36830 ft | 519 kts | 101° |
| 2026-05-03 21:29 | 23.20056 | 50.10055 | 36831 ft | 519 kts | 101° |
| 2026-05-03 21:30 | 23.18893 | 50.17814 | 36829 ft | 519 kts | 101° |
| 2026-05-03 21:30 | 23.17735 | 50.25510 | 36825 ft | 519 kts | 101° |
| 2026-05-03 21:31 | 23.16563 | 50.33277 | 36827 ft | 519 kts | 101° |
| 2026-05-03 21:31 | 23.15389 | 50.41027 | 36823 ft | 519 kts | 101° |
| 2026-05-03 21:32 | 23.14220 | 50.48718 | 36821 ft | 519 kts | 101° |
| 2026-05-03 21:32 | 23.13037 | 50.56476 | 36821 ft | 519 kts | 101° |
| 2026-05-03 21:33 | 23.11853 | 50.64217 | 36822 ft | 519 kts | 101° |
| 2026-05-03 21:33 | 23.10673 | 50.71904 | 36823 ft | 519 kts | 101° |
| 2026-05-03 21:34 | 23.09479 | 50.79655 | 36822 ft | 519 kts | 101° |
| 2026-05-03 21:34 | 23.08284 | 50.87390 | 36820 ft | 519 kts | 101° |
| 2026-05-03 21:35 | 23.07090 | 50.95085 | 36818 ft | 519 kts | 101° |
| 2026-05-03 21:35 | 23.05888 | 51.02816 | 36814 ft | 518 kts | 101° |
| 2026-05-03 21:36 | 23.04682 | 51.10542 | 36814 ft | 518 kts | 101° |
| 2026-05-03 21:36 | 23.03479 | 51.18225 | 36810 ft | 518 kts | 101° |
| 2026-05-03 21:37 | 23.02263 | 51.25962 | 36810 ft | 518 kts | 101° |
| 2026-05-03 21:37 | 23.01046 | 51.33686 | 36809 ft | 518 kts | 101° |
| 2026-05-03 21:38 | 22.99832 | 51.41358 | 36809 ft | 518 kts | 101° |
| 2026-05-03 21:38 | 22.98607 | 51.49079 | 36805 ft | 518 kts | 101° |
| 2026-05-03 21:39 | 22.97384 | 51.56765 | 36804 ft | 518 kts | 101° |
| 2026-05-03 21:39 | 22.96151 | 51.64489 | 36805 ft | 518 kts | 101° |
| 2026-05-03 21:40 | 22.95124 | 51.70902 | 36809 ft | 518 kts | 101° |
| 2026-05-03 21:40 | 22.93885 | 51.78613 | 36804 ft | 518 kts | 101° |
| 2026-05-03 21:41 | 22.92643 | 51.86322 | 36806 ft | 518 kts | 101° |
| 2026-05-03 21:41 | 22.91403 | 51.93992 | 36805 ft | 518 kts | 101° |
| 2026-05-03 21:42 | 22.90150 | 52.01722 | 36806 ft | 518 kts | 101° |
| 2026-05-03 21:42 | 22.88903 | 52.09389 | 36803 ft | 519 kts | 101° |
| 2026-05-03 21:43 | 22.87643 | 52.17116 | 36808 ft | 519 kts | 101° |
| 2026-05-03 21:43 | 22.86390 | 52.24767 | 36807 ft | 519 kts | 101° |
| 2026-05-03 21:44 | 22.85122 | 52.32494 | 36803 ft | 519 kts | 101° |
| 2026-05-03 21:44 | 22.83854 | 52.40196 | 36809 ft | 519 kts | 101° |
| 2026-05-03 21:45 | 22.82606 | 52.47907 | 36805 ft | 519 kts | 99° |
| 2026-05-03 21:45 | 22.82114 | 52.55676 | 36816 ft | 519 kts | 91° |
| 2026-05-03 21:46 | 22.81978 | 52.63510 | 36803 ft | 520 kts | 91° |
| 2026-05-03 21:46 | 22.81829 | 52.71352 | 36807 ft | 520 kts | 91° |
| 2026-05-03 21:47 | 22.81637 | 52.79189 | 36807 ft | 520 kts | 92° |
| 2026-05-03 21:47 | 22.81425 | 52.86994 | 36805 ft | 520 kts | 92° |
| 2026-05-03 21:48 | 22.81209 | 52.94838 | 36804 ft | 520 kts | 92° |
| 2026-05-03 21:48 | 22.80990 | 53.02704 | 36802 ft | 520 kts | 92° |
| 2026-05-03 21:49 | 22.80770 | 53.10544 | 36804 ft | 520 kts | 92° |
| 2026-05-03 21:49 | 22.80547 | 53.18344 | 36806 ft | 520 kts | 92° |
| 2026-05-03 21:50 | 22.80319 | 53.26193 | 36804 ft | 520 kts | 92° |
| 2026-05-03 21:50 | 22.80086 | 53.34050 | 37129 ft | 522 kts | 92° |
| 2026-05-03 21:51 | 22.79968 | 53.37983 | 37534 ft | 519 kts | 92° |
| 2026-05-03 21:51 | 22.79850 | 53.41892 | 37963 ft | 516 kts | 92° |
| 2026-05-03 21:51 | 22.79732 | 53.45770 | 38353 ft | 514 kts | 92° |
| 2026-05-03 21:51 | 22.79613 | 53.49645 | 38640 ft | 513 kts | 92° |
| 2026-05-03 21:52 | 22.79373 | 53.57363 | 38769 ft | 516 kts | 92° |
| 2026-05-03 21:52 | 22.79129 | 53.65128 | 38794 ft | 514 kts | 92° |
| 2026-05-03 21:53 | 22.78883 | 53.72810 | 38796 ft | 512 kts | 92° |
| 2026-05-03 21:53 | 22.78632 | 53.80522 | 38801 ft | 511 kts | 92° |
| 2026-05-03 21:54 | 22.78378 | 53.88236 | 38802 ft | 511 kts | 92° |
| 2026-05-03 21:54 | 22.78141 | 53.95939 | 38800 ft | 511 kts | 90° |
| 2026-05-03 21:55 | 22.78731 | 54.03557 | 38799 ft | 511 kts | 78° |
| 2026-05-03 21:55 | 22.80260 | 54.11085 | 38803 ft | 511 kts | 76° |
| 2026-05-03 21:56 | 22.81859 | 54.18616 | 38798 ft | 512 kts | 76° |
| 2026-05-03 21:56 | 22.83411 | 54.26130 | 38795 ft | 513 kts | 77° |
| 2026-05-03 21:57 | 22.84942 | 54.33706 | 38802 ft | 514 kts | 77° |
| 2026-05-03 21:57 | 22.86465 | 54.41292 | 38803 ft | 514 kts | 77° |
| 2026-05-03 21:58 | 22.87981 | 54.48853 | 38796 ft | 515 kts | 77° |
| 2026-05-03 21:58 | 22.89504 | 54.56456 | 38796 ft | 514 kts | 77° |
| 2026-05-03 21:59 | 22.91021 | 54.64046 | 38793 ft | 514 kts | 77° |
| 2026-05-03 21:59 | 22.92523 | 54.71580 | 38791 ft | 514 kts | 77° |
| 2026-05-03 22:00 | 22.94032 | 54.79170 | 38787 ft | 513 kts | 77° |
| 2026-05-03 22:00 | 22.95536 | 54.86761 | 38781 ft | 513 kts | 77° |
| 2026-05-03 22:01 | 22.97025 | 54.94288 | 38787 ft | 513 kts | 77° |
| 2026-05-03 22:01 | 22.98520 | 55.01872 | 38791 ft | 513 kts | 77° |
| 2026-05-03 22:02 | 23.00011 | 55.09450 | 38792 ft | 513 kts | 77° |
| 2026-05-03 22:02 | 23.01547 | 55.16960 | 38786 ft | 510 kts | 70° |
| 2026-05-03 22:03 | 23.03042 | 55.20412 | 38795 ft | 504 kts | 53° |
| 2026-05-03 22:03 | 23.05337 | 55.23257 | 38814 ft | 500 kts | 38° |
| 2026-05-03 22:03 | 23.08148 | 55.25469 | 38810 ft | 498 kts | 26° |
| 2026-05-03 22:03 | 23.11321 | 55.26923 | 38797 ft | 490 kts | 12° |
| 2026-05-03 22:04 | 23.17920 | 55.28738 | 38812 ft | 494 kts | 10° |
| 2026-05-03 22:04 | 23.24608 | 55.30575 | 38807 ft | 495 kts | 11° |
| 2026-05-03 22:05 | 23.31227 | 55.32497 | 38794 ft | 487 kts | 11° |
| 2026-05-03 22:05 | 23.37755 | 55.34423 | 38807 ft | 485 kts | 11° |
| 2026-05-03 22:06 | 23.44222 | 55.36328 | 38809 ft | 485 kts | 11° |
| 2026-05-03 22:06 | 23.50748 | 55.38248 | 38812 ft | 485 kts | 11° |
| 2026-05-03 22:07 | 23.57294 | 55.40184 | 38816 ft | 486 kts | 11° |
| 2026-05-03 22:07 | 23.63801 | 55.42121 | 38820 ft | 488 kts | 11° |
| 2026-05-03 22:08 | 23.70354 | 55.44073 | 38820 ft | 488 kts | 11° |
| 2026-05-03 22:08 | 23.76926 | 55.46031 | 38822 ft | 489 kts | 11° |
| 2026-05-03 22:09 | 23.83514 | 55.47995 | 38401 ft | 493 kts | 11° |
| 2026-05-03 22:09 | 23.86826 | 55.48983 | 37850 ft | 489 kts | 11° |
| 2026-05-03 22:10 | 23.93417 | 55.50940 | 36370 ft | 497 kts | 10° |
| 2026-05-03 22:10 | 23.96694 | 55.51959 | 35587 ft | 488 kts | 13° |
| 2026-05-03 22:10 | 23.99878 | 55.53398 | 34694 ft | 498 kts | 21° |
| 2026-05-03 22:10 | 24.02913 | 55.55300 | 33771 ft | 508 kts | 28° |
| 2026-05-03 22:11 | 24.05731 | 55.57621 | 32705 ft | 518 kts | 36° |
| 2026-05-03 22:11 | 24.08429 | 55.60279 | 31667 ft | 522 kts | 38° |
| 2026-05-03 22:11 | 24.11091 | 55.62996 | 30588 ft | 525 kts | 38° |
| 2026-05-03 22:11 | 24.13754 | 55.65727 | 29834 ft | 520 kts | 38° |
| 2026-05-03 22:12 | 24.16390 | 55.68406 | 28988 ft | 514 kts | 38° |
| 2026-05-03 22:12 | 24.19016 | 55.71042 | 28226 ft | 507 kts | 38° |
| 2026-05-03 22:12 | 24.21613 | 55.73627 | 27542 ft | 500 kts | 38° |
| 2026-05-03 22:12 | 24.24148 | 55.76139 | 26877 ft | 494 kts | 38° |
| 2026-05-03 22:13 | 24.26688 | 55.78654 | 26208 ft | 489 kts | 38° |
| 2026-05-03 22:13 | 24.29190 | 55.81136 | 25519 ft | 475 kts | 38° |
| 2026-05-03 22:13 | 24.31569 | 55.83505 | 24755 ft | 448 kts | 38° |
| 2026-05-03 22:13 | 24.33817 | 55.85744 | 24018 ft | 425 kts | 38° |
| 2026-05-03 22:14 | 24.35963 | 55.87879 | 23286 ft | 407 kts | 38° |
| 2026-05-03 22:14 | 24.37996 | 55.89903 | 22462 ft | 391 kts | 38° |
| 2026-05-03 22:14 | 24.40023 | 55.91922 | 21693 ft | 390 kts | 38° |
| 2026-05-03 22:14 | 24.42023 | 55.93915 | 20989 ft | 395 kts | 38° |
| 2026-05-03 22:15 | 24.44069 | 55.95956 | 20271 ft | 399 kts | 38° |
| 2026-05-03 22:15 | 24.46138 | 55.98023 | 19534 ft | 404 kts | 39° |
| 2026-05-03 22:15 | 24.48229 | 56.00116 | 18804 ft | 408 kts | 39° |
| 2026-05-03 22:15 | 24.50336 | 56.02225 | 18090 ft | 410 kts | 39° |
| 2026-05-03 22:16 | 24.52449 | 56.04342 | 17298 ft | 412 kts | 39° |
| 2026-05-03 22:16 | 24.54576 | 56.06473 | 16493 ft | 414 kts | 39° |
| 2026-05-03 22:16 | 24.56709 | 56.08606 | 15726 ft | 414 kts | 39° |
| 2026-05-03 22:16 | 24.58889 | 56.10569 | 14970 ft | 409 kts | 31° |
| 2026-05-03 22:17 | 24.61398 | 56.12035 | 14231 ft | 405 kts | 20° |
| 2026-05-03 22:17 | 24.64064 | 56.12985 | 13530 ft | 402 kts | 10° |
| 2026-05-03 22:17 | 24.66806 | 56.13467 | 12986 ft | 394 kts | 6° |
| 2026-05-03 22:17 | 24.69498 | 56.13906 | 12457 ft | 387 kts | 6° |
| 2026-05-03 22:18 | 24.72103 | 56.14364 | 11995 ft | 380 kts | 7° |
| 2026-05-03 22:18 | 24.74676 | 56.14834 | 11730 ft | 369 kts | 6° |
| 2026-05-03 22:18 | 24.77168 | 56.15227 | 11457 ft | 353 kts | 0° |
| 2026-05-03 22:18 | 24.79575 | 56.15079 | 11202 ft | 340 kts | 349° |
| 2026-05-03 22:19 | 24.81837 | 56.14496 | 10955 ft | 329 kts | 339° |
| 2026-05-03 22:19 | 24.83879 | 56.13462 | 10693 ft | 318 kts | 325° |
| 2026-05-03 22:19 | 24.85521 | 56.11864 | 10306 ft | 316 kts | 310° |
| 2026-05-03 22:19 | 24.86760 | 56.09919 | 10122 ft | 311 kts | 301° |
| 2026-05-03 22:20 | 24.87780 | 56.07866 | 10026 ft | 298 kts | 299° |
| 2026-05-03 22:20 | 24.88722 | 56.05902 | 10039 ft | 282 kts | 298° |
| 2026-05-03 22:20 | 24.89615 | 56.04035 | 10027 ft | 268 kts | 299° |
| 2026-05-03 22:20 | 24.90464 | 56.02268 | 10030 ft | 255 kts | 299° |
| 2026-05-03 22:21 | 24.91291 | 56.00557 | 10037 ft | 254 kts | 299° |
| 2026-05-03 22:21 | 24.92135 | 55.98816 | 10058 ft | 261 kts | 299° |
| 2026-05-03 22:21 | 24.92992 | 55.97054 | 10066 ft | 265 kts | 299° |
| 2026-05-03 22:21 | 24.93862 | 55.95267 | 10060 ft | 264 kts | 299° |
| 2026-05-03 22:22 | 24.94737 | 55.93472 | 9738 ft | 270 kts | 299° |
| 2026-05-03 22:22 | 24.95640 | 55.91622 | 9259 ft | 275 kts | 299° |
| 2026-05-03 22:22 | 24.96547 | 55.89764 | 8921 ft | 273 kts | 299° |
| 2026-05-03 22:22 | 24.97424 | 55.87966 | 8573 ft | 260 kts | 299° |
| 2026-05-03 22:23 | 24.98268 | 55.86233 | 8271 ft | 255 kts | 299° |
| 2026-05-03 22:23 | 24.99105 | 55.84517 | 7972 ft | 253 kts | 299° |
| 2026-05-03 22:23 | 24.99940 | 55.82807 | 7673 ft | 252 kts | 299° |
| 2026-05-03 22:23 | 25.00767 | 55.81109 | 7370 ft | 251 kts | 299° |
| 2026-05-03 22:24 | 25.01583 | 55.79435 | 7077 ft | 250 kts | 299° |
| 2026-05-03 22:24 | 25.02428 | 55.77758 | 6777 ft | 250 kts | 300° |
| 2026-05-03 22:24 | 25.03247 | 55.76085 | 6490 ft | 248 kts | 298° |
| 2026-05-03 22:24 | 25.04096 | 55.74432 | 6201 ft | 247 kts | 302° |
| 2026-05-03 22:25 | 25.05002 | 55.72829 | 5890 ft | 246 kts | 302° |
| 2026-05-03 22:25 | 25.05910 | 55.71229 | 5592 ft | 247 kts | 302° |
| 2026-05-03 22:25 | 25.06512 | 55.70161 | 5396 ft | 248 kts | 302° |
| 2026-05-03 22:25 | 25.07427 | 55.68536 | 5094 ft | 250 kts | 302° |
| 2026-05-03 22:26 | 25.08342 | 55.66902 | 4789 ft | 250 kts | 302° |
| 2026-05-03 22:26 | 25.09252 | 55.65272 | 4493 ft | 250 kts | 302° |
| 2026-05-03 22:26 | 25.10160 | 55.63646 | 4174 ft | 243 kts | 302° |
| 2026-05-03 22:26 | 25.11014 | 55.62114 | 3948 ft | 226 kts | 302° |
| 2026-05-03 22:27 | 25.11833 | 55.60671 | 3832 ft | 217 kts | 302° |
| 2026-05-03 22:27 | 25.12616 | 55.59299 | 3764 ft | 204 kts | 302° |
| 2026-05-03 22:27 | 25.13336 | 55.58013 | 3626 ft | 196 kts | 301° |
| 2026-05-03 22:27 | 25.14045 | 55.56737 | 3412 ft | 191 kts | 301° |
| 2026-05-03 22:28 | 25.14726 | 55.55506 | 3189 ft | 185 kts | 301° |
| 2026-05-03 22:28 | 25.15388 | 55.54310 | 2944 ft | 179 kts | 301° |
| 2026-05-03 22:28 | 25.16020 | 55.53169 | 2720 ft | 173 kts | 301° |
| 2026-05-03 22:28 | 25.16634 | 55.52060 | 2504 ft | 164 kts | 301° |
| 2026-05-03 22:29 | 25.17199 | 55.51039 | 2321 ft | 146 kts | 301° |
| 2026-05-03 22:29 | 25.17704 | 55.50126 | 2132 ft | 135 kts | 301° |
| 2026-05-03 22:29 | 25.18199 | 55.49232 | 1991 ft | 138 kts | 301° |
| 2026-05-03 22:29 | 25.18699 | 55.48326 | 1793 ft | 137 kts | 301° |
| 2026-05-03 22:30 | 25.19189 | 55.47442 | 1611 ft | 133 kts | 301° |
| 2026-05-03 22:30 | 25.19675 | 55.46561 | 1439 ft | 136 kts | 301° |
| 2026-05-03 22:30 | 25.20167 | 55.45667 | 1311 ft | 137 kts | 301° |
| 2026-05-03 22:30 | 25.20675 | 55.44771 | 1145 ft | 142 kts | 301° |
| 2026-05-03 22:31 | 25.21191 | 55.43833 | 941 ft | 143 kts | 300° |
| 2026-05-03 22:31 | 25.21708 | 55.42890 | 747 ft | 147 kts | 301° |
| 2026-05-03 22:31 | 25.22241 | 55.41926 | 531 ft | 144 kts | 300° |
| 2026-05-03 22:31 | 25.22773 | 55.40956 | 359 ft | 151 kts | 301° |
| 2026-05-03 22:32 | 25.23313 | 55.39983 | 166 ft | 147 kts | 301° |
| 2026-05-03 22:32 | 25.23840 | 55.39041 | 37 ft | 137 kts | 300° |
| 2026-05-03 22:32 | 25.24266 | 55.38270 | 37 ft | 92 kts | 301° |
| 2026-05-03 22:32 | 25.24493 | 55.37857 | 34 ft | 38 kts | 301° |
| 2026-05-03 22:33 | 25.24587 | 55.37638 | 32 ft | 24 kts | 291° |
| 2026-05-03 22:33 | 25.24613 | 55.37483 | 31 ft | 17 kts | 274° |
| 2026-05-03 22:33 | 25.24617 | 55.37354 | 29 ft | 15 kts | 271° |
| 2026-05-03 22:33 | 25.24642 | 55.37237 | 28 ft | 16 kts | 295° |
| 2026-05-03 22:34 | 25.24699 | 55.37126 | 28 ft | 17 kts | 301° |
| 2026-05-03 22:34 | 25.24754 | 55.37026 | 28 ft | 13 kts | 299° |
| 2026-05-03 22:34 | 25.24750 | 55.36946 | 27 ft | 13 kts | 227° |
| 2026-05-03 22:34 | 25.24653 | 55.36879 | 26 ft | 18 kts | 212° |
| 2026-05-03 22:35 | 25.24549 | 55.36809 | 31 ft | 18 kts | 211° |
| 2026-05-03 22:35 | 25.24452 | 55.36738 | 30 ft | 16 kts | 219° |
| 2026-05-03 22:35 | 25.24393 | 55.36642 | 29 ft | 16 kts | 249° |
| 2026-05-03 22:35 | 25.24379 | 55.36524 | 28 ft | 15 kts | 274° |
| 2026-05-03 22:36 | 25.24415 | 55.36415 | 30 ft | 15 kts | 298° |
| 2026-05-03 22:36 | 25.24471 | 55.36313 | 30 ft | 16 kts | 302° |
| 2026-05-03 22:36 | 25.24533 | 55.36203 | 28 ft | 17 kts | 302° |
| 2026-05-03 22:36 | 25.24596 | 55.36092 | 30 ft | 18 kts | 302° |
| 2026-05-03 22:37 | 25.24661 | 55.35977 | 31 ft | 18 kts | 302° |
| 2026-05-03 22:37 | 25.24721 | 55.35870 | 30 ft | 13 kts | 302° |
| 2026-05-03 22:37 | 25.24775 | 55.35802 | 29 ft | 12 kts | 319° |
| 2026-05-03 22:37 | 25.24801 | 55.35781 | 29 ft | 0 kts | 328° |
| 2026-05-03 22:38 | 25.24802 | 55.35781 | 26 ft | 1 kts | 328° |
| 2026-05-03 22:38 | 25.24829 | 55.35763 | 30 ft | 7 kts | 328° |
| 2026-05-03 22:39 | 25.24874 | 55.35734 | 31 ft | 8 kts | 336° |
| 2026-05-03 22:39 | 25.24924 | 55.35744 | 29 ft | 7 kts | 25° |
| 2026-05-03 22:39 | 25.24955 | 55.35763 | 29 ft | 4 kts | 30° |
| 2026-05-03 22:39 | 25.24964 | 55.35769 | 29 ft | 0 kts | 31° |